Time;durP1;ratioP1;P1;durP2;ratioP2;P2;SDS_P1;SDS_P2;PMS_P1;PMS_P2;Temp;Humidity;BMP_temperature;BMP_pressure;BME280_temperature;BME280_humidity;BME280_pressure;Samples;Min_cycle;Max_cycle;Signal;HPM_P1;HPM_P2
2023/01/15 00:01:26;;;;;;;2.40;0.90;;;6.70;99.90;;;-144.05;81.75;125687.94;5055122;28;20056;-84
2023/01/15 00:03:54;;;;;;;3.40;1.27;;;6.70;99.90;;;-144.05;82.24;125687.94;5037109;28;20055;-86
2023/01/15 00:06:24;;;;;;;8.40;1.83;;;6.70;99.90;;;-144.05;82.46;125687.94;5055010;28;20033;-83
2023/01/15 00:08:51;;;;;;;6.38;1.05;;;6.60;99.90;;;-144.05;82.59;125687.94;5054638;28;20131;-83
2023/01/15 00:11:19;;;;;;;1.42;0.85;;;6.60;99.90;;;-144.05;81.68;125687.94;5037787;28;20025;-84
2023/01/15 00:13:46;;;;;;;3.20;1.00;;;6.60;99.90;;;-144.05;81.00;125687.94;5038045;28;20035;-85
2023/01/15 00:16:20;;;;;;;4.78;1.00;;;6.50;99.90;;;-144.05;81.05;125687.94;5067423;28;20017;-84
2023/01/15 00:18:54;;;;;;;13.32;5.25;;;6.40;99.90;;;-144.05;81.12;125687.94;5056285;28;20048;-84
2023/01/15 00:21:22;;;;;;;6.78;1.33;;;6.40;99.90;;;-144.05;80.67;125687.94;5038275;28;20029;-82
2023/01/15 00:29:22;;;;;;;3.30;1.00;;;6.20;99.90;;;-144.05;79.83;125687.94;5058614;28;20049;-83
2023/01/15 00:32:02;;;;;;;3.33;0.90;;;6.20;99.90;;;-144.05;79.37;125687.94;5060515;28;20057;-82
2023/01/15 00:34:29;;;;;;;4.97;1.10;;;6.10;99.90;;;-144.05;79.12;125687.94;5042252;28;20029;-85
2023/01/15 00:36:56;;;;;;;3.42;1.25;;;6.10;99.90;;;-144.05;79.13;125687.94;5040923;28;20501;-84
2023/01/15 00:39:23;;;;;;;9.77;2.85;;;6.10;99.90;;;-144.05;79.83;125687.94;5058525;28;20025;-84
2023/01/15 00:41:50;;;;;;;3.00;1.35;;;6.00;99.90;;;-144.05;79.55;125687.94;5059120;28;20056;-85
2023/01/15 00:44:16;;;;;;;4.97;1.80;;;6.00;99.90;;;-144.05;80.44;125687.94;5040957;28;20120;-84
2023/01/15 00:46:42;;;;;;;5.28;1.65;;;6.00;99.90;;;-144.05;80.76;125687.94;5060613;28;20033;-84
2023/01/15 00:49:08;;;;;;;4.72;1.67;;;5.90;99.90;;;-144.05;80.49;125687.94;5043441;28;20037;-86
2023/01/15 00:51:34;;;;;;;2.30;1.20;;;6.00;99.90;;;-144.05;81.34;125687.94;5043074;28;20515;-81
2023/01/15 00:54:01;;;;;;;6.03;1.63;;;6.00;99.90;;;-144.05;80.83;125687.94;5059978;28;20021;-83
2023/01/15 00:56:27;;;;;;;3.70;1.27;;;6.00;99.90;;;-144.05;81.03;125687.94;5041151;28;20439;-87
2023/01/15 00:58:54;;;;;;;4.40;1.50;;;6.00;99.90;;;-144.05;80.64;125687.94;5040401;28;20033;-82
2023/01/15 01:01:20;;;;;;;1.70;1.00;;;6.00;99.90;;;-144.05;80.74;125687.94;5040687;28;20036;-86
2023/01/15 01:03:48;;;;;;;4.80;1.02;;;6.00;99.90;;;-144.05;80.58;125687.94;5042446;28;20550;-84
2023/01/15 01:06:15;;;;;;;5.15;1.02;;;6.00;99.90;;;-144.05;79.90;125687.94;5043851;28;20373;-83
2023/01/15 01:08:46;;;;;;;5.32;1.10;;;6.10;99.90;;;-144.05;78.81;125687.94;5059027;28;20033;-85
2023/01/15 01:11:18;;;;;;;3.65;0.93;;;6.00;99.90;;;-144.05;77.89;125687.94;5058486;28;20029;-85
2023/01/15 01:13:45;;;;;;;6.07;0.80;;;6.00;99.90;;;-144.05;75.38;125687.94;5040102;28;20488;-85
2023/01/15 01:16:36;;;;;;;2.22;0.80;;;6.10;99.90;;;-144.05;74.79;125687.94;5039620;28;20056;-84
2023/01/15 01:19:14;;;;;;;6.20;0.73;;;6.30;99.90;;;-144.05;74.96;125687.94;5056893;28;20112;-84
2023/01/15 01:21:42;;;;;;;1.40;0.93;;;6.20;99.90;;;-144.05;75.82;125687.94;5039119;28;20025;-83
2023/01/15 01:24:14;;;;;;;2.63;0.82;;;6.30;99.90;;;-144.05;75.97;125687.94;5039036;28;20041;-85
2023/01/15 01:26:42;;;;;;;3.55;1.35;;;6.20;99.90;;;-144.05;75.63;125687.94;5039398;28;20506;-85
2023/01/15 01:29:22;;;;;;;4.40;1.13;;;6.20;99.90;;;-144.05;75.75;125687.94;5057097;28;20063;-84
2023/01/15 01:31:49;;;;;;;3.63;1.00;;;6.30;99.90;;;-144.05;76.74;125687.94;5039771;28;20029;-83
2023/01/15 01:34:15;;;;;;;4.70;1.08;;;6.20;99.90;;;-144.05;76.37;125687.94;5057840;28;20140;-82
2023/01/15 01:36:43;;;;;;;5.75;1.40;;;6.20;99.90;;;-144.05;75.48;125687.94;5038949;28;20088;-85
2023/01/15 01:39:18;;;;;;;5.78;1.05;;;6.20;99.90;;;-144.05;74.69;125687.94;5056084;28;20036;-83
2023/01/15 01:41:46;;;;;;;3.35;0.80;;;6.20;99.90;;;-144.05;73.55;125687.94;5039361;28;20476;-83
2023/01/15 01:44:36;;;;;;;2.50;0.77;;;6.30;99.90;;;-144.05;72.71;125687.94;5061660;28;20055;-82
2023/01/15 01:47:08;;;;;;;2.08;0.70;;;6.30;99.90;;;-144.05;72.22;125687.94;5058606;28;20021;-83
2023/01/15 01:49:39;;;;;;;2.92;0.77;;;6.30;99.90;;;-144.05;72.43;125687.94;5073005;28;20040;-82
2023/01/15 01:52:14;;;;;;;4.28;1.38;;;6.30;99.90;;;-144.05;72.73;125687.94;5050380;28;20494;-82
2023/01/15 01:54:45;;;;;;;2.85;0.80;;;6.40;99.90;;;-144.05;72.30;125687.94;5047230;28;20025;-82
2023/01/15 01:57:14;;;;;;;4.05;0.80;;;6.30;99.90;;;-144.05;71.61;125687.94;5064041;28;20032;-84
2023/01/15 01:59:40;;;;;;;1.80;0.63;;;6.30;99.90;;;-144.05;72.02;125687.94;5061767;28;20048;-83
2023/01/15 02:02:06;;;;;;;1.52;0.70;;;6.30;99.90;;;-144.05;71.35;125687.94;5044162;28;20025;-82
2023/01/15 02:04:35;;;;;;;2.13;0.80;;;6.30;99.90;;;-144.05;71.61;125687.94;5061993;28;20032;-83
2023/01/15 02:07:02;;;;;;;3.13;0.57;;;6.30;99.90;;;-144.05;71.43;125687.94;5045320;28;20060;-84
2023/01/15 02:09:29;;;;;;;2.42;0.68;;;6.40;99.90;;;-144.05;71.74;125687.94;5044398;28;20032;-84
2023/01/15 02:12:11;;;;;;;1.40;0.85;;;6.30;99.90;;;-144.05;71.37;125687.94;5048266;28;20028;-84
2023/01/15 02:15:08;;;;;;;5.38;1.17;;;6.40;99.90;;;-144.05;71.55;125687.94;5045609;28;20036;-83
2023/01/15 02:17:59;;;;;;;1.42;0.63;;;6.40;99.90;;;-144.05;71.45;125687.94;5040103;28;20067;-79
2023/01/15 02:20:39;;;;;;;5.13;0.88;;;6.40;99.90;;;-144.05;71.37;125687.94;5036281;28;20119;-81
2023/01/15 02:23:58;;;;;;;2.08;0.40;;;6.40;99.90;;;-144.05;71.78;125687.94;5054394;28;20067;-80
2023/01/15 02:27:09;;;;;;;4.45;1.17;;;6.40;99.90;;;-144.05;71.95;125687.94;5048433;28;20041;-82
2023/01/15 02:29:57;;;;;;;1.08;0.40;;;6.40;99.90;;;-144.05;71.94;125687.94;5036630;28;20118;-81
2023/01/15 02:32:41;;;;;;;3.28;0.57;;;6.40;99.90;;;-144.05;71.94;125687.94;5054369;28;20021;-80
2023/01/15 02:35:35;;;;;;;1.52;1.00;;;6.40;99.90;;;-144.05;72.07;125687.94;5055112;28;20075;-82
2023/01/15 02:38:11;;;;;;;1.85;0.40;;;6.50;99.90;;;-144.05;71.82;125687.94;5054614;28;20029;-79
2023/01/15 02:40:42;;;;;;;3.90;0.60;;;6.50;99.90;;;-144.05;71.65;125687.94;5036769;28;20503;-83
2023/01/15 02:43:13;;;;;;;5.10;0.70;;;6.50;99.90;;;-144.05;71.37;125687.94;5036432;28;20488;-84
2023/01/15 02:45:44;;;;;;;5.07;0.95;;;6.50;99.90;;;-144.05;71.55;125687.94;5054581;28;20060;-83
2023/01/15 02:48:19;;;;;;;2.55;0.60;;;6.50;99.90;;;-144.05;71.40;125687.94;5053469;28;20064;-82
2023/01/15 02:51:00;;;;;;;5.20;0.70;;;6.50;99.90;;;-144.05;71.00;125687.94;5052971;28;20033;-82
2023/01/15 02:53:30;;;;;;;2.58;0.80;;;6.50;99.90;;;-144.05;71.14;125687.94;5053445;28;20056;-83
2023/01/15 02:56:09;;;;;;;2.72;0.82;;;6.50;99.90;;;-144.05;71.36;125687.94;5035912;28;20472;-82
2023/01/15 02:58:41;;;;;;;2.92;0.80;;;6.40;99.90;;;-144.05;71.11;125687.94;5045068;28;20293;-81
2023/01/15 03:01:32;;;;;;;3.33;0.50;;;6.40;99.90;;;-144.05;71.48;125687.94;5058369;28;20025;-80
2023/01/15 03:04:30;;;;;;;3.67;0.93;;;6.40;99.90;;;-144.05;71.49;125687.94;5036587;28;20021;-79
2023/01/15 03:07:17;;;;;;;3.47;0.70;;;6.40;99.90;;;-144.05;71.58;125687.94;5054663;28;20060;-81
2023/01/15 03:09:45;;;;;;;2.38;0.85;;;6.40;99.90;;;-144.05;71.20;125687.94;5035547;28;20439;-81
2023/01/15 03:13:01;;;;;;;4.82;1.13;;;6.40;99.90;;;-144.05;70.92;125687.94;5035189;28;20119;-83
2023/01/15 03:18:42;;;;;;;3.72;0.85;;;6.40;99.90;;;-144.05;71.60;125687.94;5053176;28;20145;-80
2023/01/15 03:21:19;;;;;;;3.30;0.50;;;6.40;99.90;;;-144.05;71.50;125687.94;5035074;28;20033;-80
2023/01/15 03:23:51;;;;;;;4.22;0.80;;;6.40;99.90;;;-144.05;71.45;125687.94;5052992;28;20073;-82
2023/01/15 03:26:17;;;;;;;6.13;1.27;;;6.30;99.90;;;-144.05;71.33;125687.94;5054195;28;20032;-82
2023/01/15 03:28:46;;;;;;;1.63;0.50;;;6.30;99.90;;;-144.05;71.44;125687.94;5035110;28;20400;-81
2023/01/15 03:31:12;;;;;;;3.42;0.98;;;6.40;99.90;;;-144.05;71.41;125687.94;5035569;28;20035;-82
2023/01/15 03:33:40;;;;;;;3.65;0.65;;;6.30;99.90;;;-144.05;71.14;125687.94;5054282;28;20468;-81
2023/01/15 03:36:06;;;;;;;4.20;0.65;;;6.30;99.90;;;-144.05;71.54;125687.94;5037712;28;20025;-81
2023/01/15 03:38:38;;;;;;;4.47;0.60;;;6.40;99.90;;;-144.05;71.10;125687.94;5067250;28;20121;-81
2023/01/15 03:41:24;;;;;;;4.43;0.90;;;6.30;99.90;;;-144.05;71.03;125687.94;5070600;28;20025;-82
2023/01/15 03:44:40;;;;;;;3.90;1.08;;;6.40;99.90;;;-144.05;71.39;125687.94;5048050;28;20079;-82
2023/01/15 03:48:00;;;;;;;3.45;0.90;;;6.40;99.90;;;-144.05;71.17;125687.94;5053631;28;20501;-82
2023/01/15 03:50:48;;;;;;;4.20;0.73;;;6.40;99.90;;;-144.05;71.28;125687.94;5053526;28;20057;-82
2023/01/15 03:53:43;;;;;;;4.00;0.70;;;6.40;99.90;;;-144.05;70.94;125687.94;5053201;28;20032;-83
2023/01/15 03:56:41;;;;;;;3.65;0.90;;;6.40;99.90;;;-144.05;71.11;125687.94;5035608;28;20383;-83
2023/01/15 03:59:25;;;;;;;2.45;0.50;;;6.40;99.90;;;-144.05;71.33;125687.94;5052670;28;20060;-81
2023/01/15 04:01:55;;;;;;;3.40;0.98;;;6.40;99.90;;;-144.05;71.07;125687.94;5035018;28;20127;-81
2023/01/15 04:04:24;;;;;;;2.70;1.00;;;6.40;99.90;;;-144.05;71.55;125687.94;5034142;28;20033;-82
2023/01/15 04:06:51;;;;;;;3.25;0.70;;;6.40;99.90;;;-144.05;71.32;125687.94;5034804;28;20040;-82
2023/01/15 04:09:18;;;;;;;4.53;0.88;;;6.40;99.90;;;-144.05;71.30;125687.94;5034174;28;20075;-82
2023/01/15 04:11:45;;;;;;;5.93;1.10;;;6.40;99.90;;;-144.05;71.56;125687.94;5052731;28;20036;-81
2023/01/15 04:14:13;;;;;;;3.97;0.93;;;6.30;99.90;;;-144.05;71.85;125687.94;5034853;28;20063;-80
2023/01/15 04:16:40;;;;;;;1.67;0.90;;;6.30;99.90;;;-144.05;72.26;125687.94;5036103;28;20021;-79
2023/01/15 04:19:06;;;;;;;4.72;0.95;;;6.40;99.90;;;-144.05;71.46;125687.94;5036005;28;20029;-82
2023/01/15 04:21:31;;;;;;;4.60;1.00;;;6.30;99.90;;;-144.05;71.58;125687.94;5036578;28;20036;-80
2023/01/15 04:23:57;;;;;;;3.42;1.02;;;6.40;99.90;;;-144.05;71.40;125687.94;5052912;28;20110;-80
2023/01/15 04:26:23;;;;;;;5.20;1.30;;;6.30;99.90;;;-144.05;71.60;125687.94;5036591;28;20037;-80
2023/01/15 04:28:49;;;;;;;3.17;1.13;;;6.30;99.90;;;-144.05;71.74;125687.94;5035244;28;20123;-81
2023/01/15 04:31:15;;;;;;;3.22;1.05;;;6.30;99.90;;;-144.05;71.06;125687.94;5036121;28;20053;-81
2023/01/15 04:33:41;;;;;;;7.55;1.38;;;6.30;99.90;;;-144.05;71.27;125687.94;5035172;28;20021;-82
2023/01/15 04:36:08;;;;;;;5.55;1.13;;;6.30;99.90;;;-144.05;71.55;125687.94;5053491;28;20025;-81
2023/01/15 04:38:37;;;;;;;5.85;1.20;;;6.30;99.90;;;-144.05;71.37;125687.94;5036078;28;20036;-82
2023/01/15 04:44:07;;;;;;;6.93;1.27;;;6.40;99.90;;;-144.05;71.05;125687.94;5054732;28;20082;-82
2023/01/15 04:46:41;;;;;;;5.95;1.38;;;6.40;99.90;;;-144.05;71.00;125687.94;5054918;28;20036;-82
2023/01/15 04:49:13;;;;;;;5.22;1.20;;;6.30;99.90;;;-144.05;70.82;125687.94;5054451;28;20029;-81
2023/01/15 04:51:40;;;;;;;12.45;1.40;;;6.30;99.90;;;-144.05;71.47;125687.94;5057207;28;20028;-82
2023/01/15 04:54:09;;;;;;;8.98;1.48;;;6.30;99.90;;;-144.05;71.27;125687.94;5058753;28;20025;-82
2023/01/15 04:56:50;;;;;;;5.75;1.05;;;6.40;99.90;;;-144.05;71.31;125687.94;5055696;28;20408;-82
2023/01/15 04:59:21;;;;;;;4.35;1.45;;;6.40;99.90;;;-144.05;71.18;125687.94;5053456;28;20032;-82
2023/01/15 05:01:48;;;;;;;6.32;1.13;;;6.40;99.90;;;-144.05;71.08;125687.94;5039103;28;20033;-83
2023/01/15 05:04:14;;;;;;;7.70;1.50;;;6.40;99.90;;;-144.05;71.32;125687.94;5056763;28;20120;-81
2023/01/15 05:06:39;;;;;;;4.97;1.10;;;6.40;99.90;;;-144.05;71.50;125687.94;5037887;28;20119;-80
2023/01/15 05:09:05;;;;;;;5.35;0.93;;;6.30;99.90;;;-144.05;71.36;125687.94;5037984;28;20032;-80
2023/01/15 05:11:36;;;;;;;1.88;0.73;;;6.40;99.90;;;-144.05;71.30;125687.94;5053618;28;20021;-82
2023/01/15 05:14:03;;;;;;;5.75;0.70;;;6.30;99.90;;;-144.05;71.38;125687.94;5054270;28;20029;-79
2023/01/15 05:16:31;;;;;;;5.32;1.02;;;6.40;99.90;;;-144.05;71.10;125687.94;5040179;28;20120;-79
2023/01/15 05:19:06;;;;;;;4.00;0.90;;;6.40;99.90;;;-144.05;71.07;125687.94;5057667;28;20439;-80
2023/01/15 05:21:38;;;;;;;3.05;0.80;;;6.40;99.90;;;-144.05;70.78;125687.94;5041582;28;20067;-79
2023/01/15 05:24:07;;;;;;;8.43;1.15;;;6.50;99.90;;;-144.05;70.83;125687.94;5041190;28;20037;-80
2023/01/15 05:26:35;;;;;;;11.35;1.30;;;6.50;99.90;;;-144.05;70.66;125687.94;5058760;28;20029;-79
2023/01/15 05:29:03;;;;;;;4.53;1.02;;;6.40;99.90;;;-144.05;70.65;125687.94;5057948;28;20036;-79
2023/01/15 05:31:32;;;;;;;6.03;1.00;;;6.40;99.90;;;-144.05;70.84;125687.94;5057387;28;20033;-82
2023/01/15 05:33:58;;;;;;;7.30;0.98;;;6.40;99.90;;;-144.05;70.50;125687.94;5039765;28;20025;-78
2023/01/15 05:36:30;;;;;;;6.15;1.42;;;6.40;99.90;;;-144.05;70.71;125687.94;5058177;28;20025;-81
2023/01/15 05:39:00;;;;;;;4.05;0.90;;;6.40;99.90;;;-144.05;70.38;125687.94;5058020;28;20028;-81
2023/01/15 05:44:23;;;;;;;5.13;0.85;;;6.40;99.90;;;-144.05;70.63;125687.94;5064834;28;20032;-80
2023/01/15 05:46:59;;;;;;;9.75;2.25;;;6.40;99.90;;;-144.05;70.65;125687.94;5038809;28;20048;-81
2023/01/15 05:49:30;;;;;;;3.00;0.85;;;6.40;99.90;;;-144.05;70.70;125687.94;5056949;28;20047;-81
2023/01/15 05:51:57;;;;;;;6.60;1.10;;;6.40;99.90;;;-144.05;70.59;125687.94;5055818;28;20032;-79
2023/01/15 05:54:30;;;;;;;2.78;0.80;;;6.40;99.90;;;-144.05;70.84;125687.94;5037701;28;20388;-80
2023/01/15 05:56:57;;;;;;;7.50;1.23;;;6.40;99.90;;;-144.05;70.86;125687.94;5037594;28;20491;-80
2023/01/15 05:59:28;;;;;;;6.05;1.35;;;6.40;99.90;;;-144.05;70.51;125687.94;5055125;28;20033;-81
2023/01/15 06:01:54;;;;;;;8.10;1.27;;;6.40;99.90;;;-144.05;70.10;125687.94;5054986;28;20036;-81
2023/01/15 06:04:23;;;;;;;4.85;0.98;;;6.40;99.90;;;-144.05;70.32;125687.94;5037416;28;20029;-81
2023/01/15 06:06:52;;;;;;;7.05;1.15;;;6.40;99.90;;;-144.05;70.68;125687.94;5054940;28;20037;-81
2023/01/15 06:09:19;;;;;;;7.90;1.27;;;6.40;99.90;;;-144.05;70.34;125687.94;5054575;28;20059;-79
2023/01/15 06:11:46;;;;;;;7.75;1.17;;;6.40;99.90;;;-144.05;70.02;125687.94;5054846;28;20053;-80
2023/01/15 06:14:12;;;;;;;7.07;1.77;;;6.40;99.90;;;-144.05;70.47;125687.94;5037443;28;20033;-80
2023/01/15 06:16:39;;;;;;;8.55;1.20;;;6.50;99.90;;;-144.05;70.40;125687.94;5036983;28;20071;-80
2023/01/15 06:19:07;;;;;;;8.93;1.35;;;6.50;99.90;;;-144.05;70.51;125687.94;5054702;28;20044;-80
2023/01/15 06:21:35;;;;;;;7.55;1.20;;;6.50;99.90;;;-144.05;70.47;125687.94;5056029;28;20032;-81
2023/01/15 06:24:01;;;;;;;11.45;1.48;;;6.50;99.90;;;-144.05;70.41;125687.94;5055303;28;20086;-81
2023/01/15 06:26:27;;;;;;;5.82;1.20;;;6.40;99.90;;;-144.05;70.52;125687.94;5054631;28;20526;-79
2023/01/15 06:28:53;;;;;;;4.93;1.20;;;6.40;99.90;;;-144.05;70.67;125687.94;5054688;28;20033;-82
2023/01/15 06:31:22;;;;;;;5.13;1.38;;;6.40;99.90;;;-144.05;70.45;125687.94;5054560;28;20058;-81
2023/01/15 06:33:48;;;;;;;4.38;1.00;;;6.40;99.90;;;-144.05;70.32;125687.94;5054526;28;20033;-81
2023/01/15 06:36:22;;;;;;;10.18;1.40;;;6.50;99.90;;;-144.05;70.33;125687.94;5036453;28;20032;-80
2023/01/15 06:38:49;;;;;;;5.85;1.23;;;6.40;99.90;;;-144.05;69.80;125687.94;5054384;28;20060;-80
2023/01/15 06:49:41;;;;;;;7.82;1.42;;;6.50;99.90;;;-144.05;69.04;125687.94;5063743;28;20040;-81
2023/01/15 06:52:07;;;;;;;12.45;1.45;;;6.50;99.90;;;-144.05;68.37;125687.94;5059909;28;20353;-83
2023/01/15 06:54:34;;;;;;;9.57;1.50;;;6.60;99.90;;;-144.05;68.54;125687.94;5055360;28;20438;-80
2023/01/15 06:57:00;;;;;;;9.63;1.50;;;6.60;99.90;;;-144.05;68.65;125687.94;5055337;28;20025;-82
2023/01/15 06:59:26;;;;;;;7.00;1.90;;;6.60;99.90;;;-144.05;68.64;125687.94;5055045;28;20412;-81
2023/01/15 07:01:51;;;;;;;5.95;1.10;;;6.60;99.90;;;-144.05;68.09;125687.94;5036360;28;20037;-81
2023/01/15 07:04:17;;;;;;;7.07;1.55;;;6.60;99.90;;;-144.05;68.61;125687.94;5053750;28;20478;-81
2023/01/15 07:06:43;;;;;;;8.68;2.00;;;6.70;99.90;;;-144.05;68.45;125687.94;5037419;28;20029;-82
2023/01/15 07:09:09;;;;;;;9.73;2.25;;;6.70;99.90;;;-144.05;68.91;125687.94;5035587;28;20029;-81
2023/01/15 07:11:48;;;;;;;6.82;1.40;;;6.60;99.90;;;-144.05;69.33;125687.94;5036474;28;20044;-81
2023/01/15 07:14:23;;;;;;;9.85;1.00;;;6.50;99.90;;;-144.05;70.05;125687.94;5054375;28;20108;-81
2023/01/15 07:16:51;;;;;;;7.75;1.60;;;6.50;99.90;;;-144.05;70.35;125687.94;5054673;28;20094;-79
2023/01/15 07:19:18;;;;;;;13.27;1.80;;;6.40;99.90;;;-144.05;69.90;125687.94;5053468;28;20560;-80
2023/01/15 07:21:45;;;;;;;8.27;1.83;;;6.50;99.90;;;-144.05;69.72;125687.94;5035717;28;20070;-82
2023/01/15 07:24:12;;;;;;;7.47;1.58;;;6.60;99.90;;;-144.05;69.83;125687.94;5053906;28;20037;-80
2023/01/15 07:26:40;;;;;;;8.77;1.90;;;6.50;99.90;;;-144.05;69.36;125687.94;5035737;28;20033;-79
2023/01/15 07:29:05;;;;;;;11.32;1.33;;;6.50;99.90;;;-144.05;69.97;125687.94;5053300;28;20092;-81
2023/01/15 07:31:32;;;;;;;6.15;2.00;;;6.50;99.90;;;-144.05;69.26;125687.94;5036237;28;20040;-80
2023/01/15 07:33:58;;;;;;;7.53;1.88;;;6.50;99.90;;;-144.05;68.66;125687.94;5054563;28;20104;-81
2023/01/15 07:36:25;;;;;;;7.88;1.45;;;6.60;99.90;;;-144.05;69.17;125687.94;5053640;28;20029;-81
2023/01/15 07:38:51;;;;;;;10.40;1.95;;;6.60;99.90;;;-144.05;69.15;125687.94;5035034;28;20036;-81
2023/01/15 07:49:46;;;;;;;6.35;1.10;;;6.50;99.90;;;-144.05;69.20;125687.94;5053810;28;20557;-81
2023/01/15 07:52:21;;;;;;;6.60;2.00;;;6.50;99.90;;;-144.05;69.41;125687.94;5053409;28;20053;-78
2023/01/15 07:54:49;;;;;;;12.63;1.73;;;6.60;99.90;;;-144.05;69.11;125687.94;5036208;28;20075;-82
2023/01/15 07:57:20;;;;;;;7.78;2.10;;;6.50;99.90;;;-144.05;69.21;125687.94;5055734;28;20032;-80
2023/01/15 07:59:48;;;;;;;9.95;1.73;;;6.50;99.90;;;-144.05;69.12;125687.94;5055008;28;20040;-80
2023/01/15 08:02:14;;;;;;;9.35;1.13;;;6.50;99.90;;;-144.05;68.63;125687.94;5037374;28;20040;-82
2023/01/15 08:04:40;;;;;;;4.63;1.50;;;6.50;99.90;;;-144.05;68.44;125687.94;5053953;28;20025;-79
2023/01/15 08:07:07;;;;;;;5.53;1.05;;;6.50;99.90;;;-144.05;68.23;125687.94;5037690;28;20025;-80
2023/01/15 08:09:33;;;;;;;7.13;1.17;;;6.50;99.90;;;-144.05;68.20;125687.94;5036560;28;20076;-80
2023/01/15 08:17:36;;;;;;;8.02;1.67;;;6.50;99.90;;;-144.05;67.76;125687.94;5065757;28;20036;-81
2023/01/15 08:20:23;;;;;;;6.28;1.30;;;6.60;99.90;;;-144.05;67.99;125687.94;5052732;28;20028;-81
2023/01/15 08:22:49;;;;;;;7.18;1.33;;;6.50;99.90;;;-144.05;67.70;125687.94;5066456;28;20431;-80
2023/01/15 08:25:24;;;;;;;5.93;0.82;;;6.50;99.90;;;-144.05;67.68;125687.94;5037978;28;20092;-81
2023/01/15 08:27:52;;;;;;;7.15;1.73;;;6.60;99.90;;;-144.05;66.99;125687.94;5055779;28;20044;-82
2023/01/15 08:30:24;;;;;;;4.82;1.05;;;6.60;99.90;;;-144.05;67.25;125687.94;5054317;28;20112;-82
2023/01/15 08:32:51;;;;;;;5.85;1.20;;;6.60;99.90;;;-144.05;67.67;125687.94;5054897;28;20049;-80
2023/01/15 08:35:17;;;;;;;6.88;0.95;;;6.60;99.90;;;-144.05;67.42;125687.94;5054658;28;20040;-80
2023/01/15 08:37:43;;;;;;;6.40;1.50;;;6.60;99.90;;;-144.05;67.34;125687.94;5040872;28;20029;-79
2023/01/15 08:40:11;;;;;;;7.00;1.38;;;6.70;99.90;;;-144.05;67.00;125687.94;5060663;28;20041;-81
2023/01/15 08:42:38;;;;;;;9.38;1.23;;;6.60;99.90;;;-144.05;67.15;125687.94;5042593;28;20411;-80
2023/01/15 08:45:04;;;;;;;9.80;1.77;;;6.60;99.90;;;-144.05;66.50;125687.94;5048021;28;20033;-80
2023/01/15 08:47:31;;;;;;;9.38;1.00;;;6.60;99.90;;;-144.05;66.43;125687.94;5069130;28;20033;-81
2023/01/15 08:49:57;;;;;;;6.25;1.13;;;6.70;99.90;;;-144.05;64.97;125687.94;5065694;28;20107;-81
2023/01/15 08:52:22;;;;;;;6.82;1.70;;;6.70;99.90;;;-144.05;64.26;125687.94;5047844;28;20106;-80
2023/01/15 08:54:48;;;;;;;7.50;4.40;;;6.70;99.90;;;-144.05;63.84;125687.94;5065299;28;20132;-81
2023/01/15 08:57:14;;;;;;;7.30;1.63;;;6.70;99.90;;;-144.05;64.38;125687.94;5062873;28;20028;-83
2023/01/15 08:59:42;;;;;;;5.93;0.93;;;6.60;99.90;;;-144.05;64.91;125687.94;5058932;28;20090;-84
2023/01/15 09:02:14;;;;;;;7.28;1.00;;;6.70;99.90;;;-144.05;63.64;125687.94;5041671;28;20029;-78
2023/01/15 09:04:40;;;;;;;4.18;0.85;;;6.70;99.90;;;-144.05;63.62;125687.94;5063342;28;20118;-84
2023/01/15 09:07:06;;;;;;;5.32;1.15;;;6.70;99.90;;;-144.05;63.58;125687.94;5059672;28;20065;-82
2023/01/15 09:09:33;;;;;;;5.53;1.00;;;6.80;99.90;;;-144.05;63.29;125687.94;5062479;28;20616;-79
2023/01/15 09:11:59;;;;;;;3.40;0.88;;;6.70;99.90;;;-144.05;63.53;125687.94;5044365;28;20029;-82
2023/01/15 09:14:25;;;;;;;4.82;0.90;;;6.70;99.90;;;-144.05;63.66;125687.94;5062190;28;20561;-80
2023/01/15 09:16:51;;;;;;;8.48;1.83;;;6.60;99.90;;;-144.05;63.96;125687.94;5042701;28;20067;-84
2023/01/15 09:19:17;;;;;;;8.15;1.52;;;6.60;99.90;;;-144.05;63.66;125687.94;5043960;28;20021;-82
2023/01/15 09:21:42;;;;;;;8.48;1.20;;;6.50;99.90;;;-144.05;63.64;125687.94;5059560;28;20029;-83
2023/01/15 09:24:08;;;;;;;3.67;1.02;;;6.50;99.90;;;-144.05;64.10;125687.94;5039209;28;20547;-80
2023/01/15 09:26:39;;;;;;;3.55;1.25;;;6.50;99.90;;;-144.05;63.91;125687.94;5039034;28;20105;-80
2023/01/15 09:29:07;;;;;;;5.55;1.05;;;6.50;99.90;;;-144.05;64.03;125687.94;5039203;28;20060;-79
2023/01/15 09:31:34;;;;;;;4.65;1.25;;;6.50;99.90;;;-144.05;63.80;125687.94;5056420;28;20098;-78
2023/01/15 09:34:00;;;;;;;3.08;0.63;;;6.40;99.90;;;-144.05;63.45;125687.94;5040999;28;20029;-78
2023/01/15 09:36:34;;;;;;;8.73;1.02;;;6.40;99.90;;;-144.05;63.75;125687.94;5058661;28;20025;-80
2023/01/15 09:39:03;;;;;;;1.95;0.70;;;6.30;99.90;;;-144.05;62.66;125687.94;5058432;28;20037;-79
2023/01/15 09:42:23;;;;;;;5.47;0.80;;;6.40;99.90;;;-144.05;62.57;125687.94;5041514;28;20048;-79
2023/01/15 09:45:11;;;;;;;4.15;0.98;;;6.30;99.90;;;-144.05;62.67;125687.94;5059588;28;20033;-79
2023/01/15 09:47:46;;;;;;;4.20;1.08;;;6.40;99.90;;;-144.05;61.42;125687.94;5060017;28;20077;-79
2023/01/15 09:50:31;;;;;;;4.03;0.63;;;6.70;99.90;;;-144.05;61.20;125687.94;5058342;28;20033;-79
2023/01/15 09:53:33;;;;;;;5.13;0.93;;;6.80;99.90;;;-144.05;60.60;125687.94;5058408;28;20040;-80
2023/01/15 09:56:03;;;;;;;5.80;1.02;;;7.00;99.90;;;-144.05;59.57;125687.94;5058445;28;20063;-79
2023/01/15 09:58:38;;;;;;;7.18;0.77;;;7.00;99.90;;;-144.05;60.75;125687.94;5040091;28;20403;-79
2023/01/15 10:01:06;;;;;;;4.13;0.90;;;6.90;99.90;;;-144.05;60.42;125687.94;5057147;28;20060;-79
2023/01/15 10:03:58;;;;;;;8.02;1.02;;;6.90;99.90;;;-144.05;60.97;125687.94;5039750;28;20037;-80
2023/01/15 10:06:36;;;;;;;4.57;1.02;;;6.80;99.90;;;-144.05;61.65;125687.94;5038990;28;20036;-78
2023/01/15 10:09:36;;;;;;;7.85;2.45;;;6.60;99.90;;;-144.05;62.09;125687.94;5057877;28;20033;-80
2023/01/15 10:12:42;;;;;;;5.40;1.13;;;6.60;99.90;;;-144.05;62.74;125687.94;5056037;28;20369;-80
2023/01/15 10:15:38;;;;;;;8.32;1.00;;;6.60;99.90;;;-144.05;62.41;125687.94;5056945;28;20025;-78
2023/01/15 10:18:08;;;;;;;;;;;6.60;99.90;;;-144.05;61.94;125687.94;5056998;28;20029;-80
2023/01/15 10:21:04;;;;;;;5.57;0.90;;;6.60;99.90;;;-144.05;61.57;125687.94;5056322;28;20327;-79
2023/01/15 10:24:01;;;;;;;6.85;1.33;;;6.70;99.90;;;-144.05;61.52;125687.94;5057308;28;20036;-80
2023/01/15 10:26:57;;;;;;;6.68;1.20;;;6.80;99.90;;;-144.05;62.90;125687.94;5040367;28;20024;-77
2023/01/15 10:29:50;;;;;;;10.15;1.30;;;6.80;99.90;;;-144.05;62.81;125687.94;5040213;28;20033;-79
2023/01/15 10:32:38;;;;;;;5.35;1.30;;;6.80;99.90;;;-144.05;62.66;125687.94;5058764;28;20036;-78
2023/01/15 10:35:32;;;;;;;3.70;1.13;;;6.80;99.90;;;-144.05;61.92;125687.94;5040230;28;20035;-79
2023/01/15 10:38:32;;;;;;;7.22;1.45;;;6.90;99.90;;;-144.05;60.23;125687.94;5058256;28;20025;-79
2023/01/15 10:41:35;;;;;;;9.48;1.52;;;7.10;99.90;;;-144.05;59.44;125687.94;5057377;28;20427;-79
2023/01/15 10:44:32;;;;;;;6.78;1.10;;;7.10;99.90;;;-144.05;60.18;125687.94;5062337;28;20021;-80
2023/01/15 10:47:02;;;;;;;8.27;1.20;;;7.00;99.90;;;-144.05;60.72;125687.94;5049360;28;20029;-80
2023/01/15 10:49:30;;;;;;;7.32;1.55;;;7.00;99.90;;;-144.05;59.79;125687.94;5064870;28;20107;-82
2023/01/15 10:52:11;;;;;;;6.30;1.10;;;7.10;99.90;;;-144.05;59.57;125687.94;5042878;28;20025;-79
2023/01/15 10:55:32;;;;;;;7.13;1.42;;;7.00;99.90;;;-144.05;59.57;125687.94;5057880;28;20469;-78
2023/01/15 10:58:52;;;;;;;3.53;1.10;;;7.00;99.90;;;-144.05;60.50;125687.94;5059859;28;20491;-81
2023/01/15 11:01:24;;;;;;;9.15;1.38;;;7.00;99.90;;;-144.05;59.81;125687.94;5059111;28;20021;-78
2023/01/15 11:03:52;;;;;;;7.97;2.10;;;7.10;99.90;;;-144.05;60.53;125687.94;5041701;28;20028;-78
2023/01/15 11:06:26;;;;;;;5.78;1.10;;;7.20;99.90;;;-144.05;59.23;125687.94;5058599;28;20051;-78
2023/01/15 11:08:56;;;;;;;6.40;1.10;;;7.60;99.90;;;-144.05;58.21;125687.94;5059070;28;20025;-81